Aeroporto :
LOGIN :

Iscrizione | Disclaimer

   EN    FR    IT 

 










Sommario :    VFR   VFR Marginale   IFR   IFR Intensivo   IFR Molto Intensivo
Visibilità : 
Base nubi : 
>= 8 km
>= 3000ft
5 / 8 km
1000 / 3000 ft
1500m / 5 km
500 / 1000 ft
800 / 1500m
200 / 500 ft
< 800m
< 200 ft
Simboli :   Temporali  Nebbia  Neve Forte  Precipitazioni Forti  Vento > 20 kt
SIGMETs :   Varie  Temporali  Ghiacco  Turbolenza  Onda orograficha  Ceneri Vulcaniche






- Altitudine del aeroporto : 436 ft
- Codice IATA : BTS


LZIB - Bratislava

ULTIMO METAR :
  • 252230Z 32010KT CAVOK 12/08 Q1028

METARs OBSOLETI :
  • 252200Z 31008KT CAVOK 12/07 Q1027
  • 252130Z 32005KT 290V350 CAVOK 11/07 Q1027
  • 252100Z 31006KT CAVOK 12/07 Q1027
  • 252030Z 32006KT 290V350 CAVOK 12/06 Q1027
  • 252000Z 35008KT CAVOK 13/06 Q1027

TAF TAF LZIB
Valido dal 25 a 18 ore il 26 a 18 ore UTC


251700Z 2518/2618 30010KT 9999 FEW045 SCT060
TEMPO 2518/2522 SHRA FEW030CB BKN045
PROB30
TEMPO 2610/2616 31015G25KT 4000 TSRA SCT025CB BKN040



MetMap, La meteo Aeronautica in un colpo d'occhio ! - Copyright ORBIFLY Dicembre 2007 - Disclaimer

ORBIFLY MET'MAP TEAM :

Programmazione e sviluppo : Alexandra Zaïnal
Concezione : Baudouin d'Aumeries
Aiuto per la programmazione : Marc-Olivier Méhu
Supporto tecnico e logistico : Manuel Goepfert
Aiuto per la traduzione : Arnaldo La Scala

Contatto : metmap@orbifly.com




FONTI E CREDITI :

   NOAA